sensor_id;sensor_type;location;lat;lon;timestamp;P1;durP1;ratioP1;P2;durP2;ratioP2
32445;SDS011;18899;50.748;7.102;2023-01-24T00:00:37;13.90;;;7.32;;
32445;SDS011;18899;50.748;7.102;2023-01-24T00:03:03;12.25;;;6.88;;
32445;SDS011;18899;50.748;7.102;2023-01-24T00:05:28;14.80;;;7.13;;
32445;SDS011;18899;50.748;7.102;2023-01-24T00:07:54;13.48;;;7.25;;
32445;SDS011;18899;50.748;7.102;2023-01-24T00:10:20;11.38;;;6.88;;
32445;SDS011;18899;50.748;7.102;2023-01-24T00:12:45;13.10;;;6.60;;
32445;SDS011;18899;50.748;7.102;2023-01-24T00:15:11;14.27;;;6.43;;
32445;SDS011;18899;50.748;7.102;2023-01-24T00:17:36;14.32;;;7.45;;
32445;SDS011;18899;50.748;7.102;2023-01-24T00:20:02;11.50;;;6.47;;
32445;SDS011;18899;50.748;7.102;2023-01-24T00:22:30;14.88;;;7.18;;
32445;SDS011;18899;50.748;7.102;2023-01-24T00:24:56;11.90;;;6.95;;
32445;SDS011;18899;50.748;7.102;2023-01-24T00:27:21;13.35;;;7.10;;
32445;SDS011;18899;50.748;7.102;2023-01-24T00:29:47;15.13;;;7.55;;
32445;SDS011;18899;50.748;7.102;2023-01-24T00:32:12;13.65;;;7.35;;
32445;SDS011;18899;50.748;7.102;2023-01-24T00:34:38;13.05;;;6.72;;
32445;SDS011;18899;50.748;7.102;2023-01-24T00:37:03;11.60;;;6.35;;
32445;SDS011;18899;50.748;7.102;2023-01-24T00:39:29;12.00;;;5.75;;
32445;SDS011;18899;50.748;7.102;2023-01-24T00:41:54;10.38;;;5.50;;
32445;SDS011;18899;50.748;7.102;2023-01-24T00:44:20;9.82;;;5.70;;
32445;SDS011;18899;50.748;7.102;2023-01-24T00:46:45;10.63;;;5.45;;
32445;SDS011;18899;50.748;7.102;2023-01-24T00:49:11;10.05;;;5.10;;
32445;SDS011;18899;50.748;7.102;2023-01-24T00:51:36;8.93;;;5.18;;
32445;SDS011;18899;50.748;7.102;2023-01-24T00:54:02;9.45;;;5.35;;
32445;SDS011;18899;50.748;7.102;2023-01-24T00:56:27;12.43;;;6.70;;
32445;SDS011;18899;50.748;7.102;2023-01-24T00:58:53;9.18;;;5.40;;
32445;SDS011;18899;50.748;7.102;2023-01-24T01:01:18;8.40;;;4.97;;
32445;SDS011;18899;50.748;7.102;2023-01-24T01:03:44;9.23;;;4.95;;
32445;SDS011;18899;50.748;7.102;2023-01-24T01:06:12;9.13;;;5.30;;
32445;SDS011;18899;50.748;7.102;2023-01-24T01:08:41;9.32;;;4.88;;
32445;SDS011;18899;50.748;7.102;2023-01-24T01:11:07;9.20;;;5.57;;
32445;SDS011;18899;50.748;7.102;2023-01-24T01:13:33;9.93;;;5.93;;
32445;SDS011;18899;50.748;7.102;2023-01-24T01:18:31;11.60;;;6.45;;
32445;SDS011;18899;50.748;7.102;2023-01-24T01:20:57;8.60;;;5.20;;
32445;SDS011;18899;50.748;7.102;2023-01-24T01:23:23;9.55;;;5.20;;
32445;SDS011;18899;50.748;7.102;2023-01-24T01:25:48;9.20;;;5.00;;
32445;SDS011;18899;50.748;7.102;2023-01-24T01:28:14;9.00;;;5.38;;
32445;SDS011;18899;50.748;7.102;2023-01-24T01:30:39;9.75;;;5.18;;
32445;SDS011;18899;50.748;7.102;2023-01-24T01:33:05;7.43;;;4.32;;
32445;SDS011;18899;50.748;7.102;2023-01-24T01:35:30;7.45;;;4.43;;
32445;SDS011;18899;50.748;7.102;2023-01-24T01:37:56;9.35;;;5.40;;
32445;SDS011;18899;50.748;7.102;2023-01-24T01:40:22;8.23;;;4.78;;
32445;SDS011;18899;50.748;7.102;2023-01-24T01:42:51;11.95;;;5.22;;
32445;SDS011;18899;50.748;7.102;2023-01-24T01:48:11;8.25;;;5.07;;
32445;SDS011;18899;50.748;7.102;2023-01-24T01:50:54;6.45;;;4.43;;
32445;SDS011;18899;50.748;7.102;2023-01-24T01:53:26;8.57;;;4.68;;
32445;SDS011;18899;50.748;7.102;2023-01-24T01:55:58;10.88;;;4.97;;
32445;SDS011;18899;50.748;7.102;2023-01-24T01:58:29;7.75;;;4.38;;
32445;SDS011;18899;50.748;7.102;2023-01-24T02:00:55;7.80;;;4.55;;
32445;SDS011;18899;50.748;7.102;2023-01-24T02:03:22;8.63;;;4.68;;
32445;SDS011;18899;50.748;7.102;2023-01-24T02:06:02;8.73;;;4.70;;
32445;SDS011;18899;50.748;7.102;2023-01-24T02:08:30;7.68;;;4.38;;
32445;SDS011;18899;50.748;7.102;2023-01-24T02:10:55;6.32;;;3.58;;
32445;SDS011;18899;50.748;7.102;2023-01-24T02:13:41;6.93;;;4.05;;
32445;SDS011;18899;50.748;7.102;2023-01-24T02:16:09;7.90;;;4.00;;
32445;SDS011;18899;50.748;7.102;2023-01-24T02:18:39;7.07;;;3.97;;
32445;SDS011;18899;50.748;7.102;2023-01-24T02:21:15;6.43;;;3.53;;
32445;SDS011;18899;50.748;7.102;2023-01-24T02:23:54;6.80;;;3.65;;
32445;SDS011;18899;50.748;7.102;2023-01-24T02:26:21;7.20;;;3.67;;
32445;SDS011;18899;50.748;7.102;2023-01-24T02:28:53;7.05;;;3.92;;
32445;SDS011;18899;50.748;7.102;2023-01-24T02:31:25;11.43;;;5.00;;
32445;SDS011;18899;50.748;7.102;2023-01-24T02:33:51;8.10;;;4.55;;
32445;SDS011;18899;50.748;7.102;2023-01-24T02:36:20;7.75;;;4.47;;
32445;SDS011;18899;50.748;7.102;2023-01-24T02:39:02;9.73;;;5.13;;
32445;SDS011;18899;50.748;7.102;2023-01-24T02:41:33;12.38;;;5.88;;
32445;SDS011;18899;50.748;7.102;2023-01-24T02:44:17;8.55;;;5.30;;
32445;SDS011;18899;50.748;7.102;2023-01-24T02:46:56;8.90;;;5.18;;
32445;SDS011;18899;50.748;7.102;2023-01-24T02:49:21;12.50;;;6.18;;
32445;SDS011;18899;50.748;7.102;2023-01-24T02:51:47;9.52;;;5.20;;
32445;SDS011;18899;50.748;7.102;2023-01-24T02:54:31;9.25;;;5.07;;
32445;SDS011;18899;50.748;7.102;2023-01-24T02:56:57;10.10;;;5.25;;
32445;SDS011;18899;50.748;7.102;2023-01-24T02:59:41;12.57;;;5.47;;
32445;SDS011;18899;50.748;7.102;2023-01-24T03:02:06;10.93;;;5.55;;
32445;SDS011;18899;50.748;7.102;2023-01-24T03:04:32;9.88;;;5.05;;
32445;SDS011;18899;50.748;7.102;2023-01-24T03:06:57;12.10;;;5.10;;
32445;SDS011;18899;50.748;7.102;2023-01-24T03:09:23;7.38;;;4.60;;
32445;SDS011;18899;50.748;7.102;2023-01-24T03:11:59;7.65;;;4.63;;
32445;SDS011;18899;50.748;7.102;2023-01-24T03:14:47;10.07;;;5.22;;
32445;SDS011;18899;50.748;7.102;2023-01-24T03:17:31;8.20;;;4.60;;
32445;SDS011;18899;50.748;7.102;2023-01-24T03:20:15;10.27;;;5.13;;
32445;SDS011;18899;50.748;7.102;2023-01-24T03:22:59;9.20;;;5.32;;
32445;SDS011;18899;50.748;7.102;2023-01-24T03:25:43;9.27;;;5.18;;
32445;SDS011;18899;50.748;7.102;2023-01-24T03:28:27;9.77;;;5.22;;
32445;SDS011;18899;50.748;7.102;2023-01-24T03:31:12;8.80;;;4.63;;
32445;SDS011;18899;50.748;7.102;2023-01-24T03:33:56;7.90;;;4.28;;
32445;SDS011;18899;50.748;7.102;2023-01-24T03:36:40;5.63;;;3.72;;
32445;SDS011;18899;50.748;7.102;2023-01-24T03:39:06;6.45;;;3.60;;
32445;SDS011;18899;50.748;7.102;2023-01-24T03:41:50;6.80;;;3.80;;
32445;SDS011;18899;50.748;7.102;2023-01-24T03:44:15;7.32;;;4.15;;
32445;SDS011;18899;50.748;7.102;2023-01-24T03:46:41;8.10;;;3.70;;
32445;SDS011;18899;50.748;7.102;2023-01-24T03:49:07;6.38;;;4.07;;
32445;SDS011;18899;50.748;7.102;2023-01-24T03:51:33;10.65;;;4.10;;
32445;SDS011;18899;50.748;7.102;2023-01-24T03:54:17;9.32;;;4.45;;
32445;SDS011;18899;50.748;7.102;2023-01-24T03:56:42;7.55;;;4.68;;
32445;SDS011;18899;50.748;7.102;2023-01-24T03:59:08;6.70;;;3.95;;
32445;SDS011;18899;50.748;7.102;2023-01-24T04:01:33;7.00;;;4.05;;
32445;SDS011;18899;50.748;7.102;2023-01-24T04:03:59;7.57;;;3.97;;
32445;SDS011;18899;50.748;7.102;2023-01-24T04:06:25;9.95;;;4.72;;
32445;SDS011;18899;50.748;7.102;2023-01-24T04:08:50;6.30;;;4.07;;
32445;SDS011;18899;50.748;7.102;2023-01-24T04:11:16;7.00;;;4.18;;
32445;SDS011;18899;50.748;7.102;2023-01-24T04:13:42;7.97;;;4.28;;
32445;SDS011;18899;50.748;7.102;2023-01-24T04:16:08;7.45;;;4.00;;
32445;SDS011;18899;50.748;7.102;2023-01-24T04:18:34;7.57;;;3.78;;
32445;SDS011;18899;50.748;7.102;2023-01-24T04:21:02;7.72;;;4.30;;
32445;SDS011;18899;50.748;7.102;2023-01-24T04:23:28;6.40;;;3.97;;
32445;SDS011;18899;50.748;7.102;2023-01-24T04:25:54;4.78;;;3.50;;
32445;SDS011;18899;50.748;7.102;2023-01-24T04:28:22;5.32;;;3.30;;
32445;SDS011;18899;50.748;7.102;2023-01-24T04:30:48;5.43;;;3.05;;
32445;SDS011;18899;50.748;7.102;2023-01-24T04:33:20;6.15;;;3.35;;
32445;SDS011;18899;50.748;7.102;2023-01-24T04:35:46;10.27;;;3.70;;
32445;SDS011;18899;50.748;7.102;2023-01-24T04:38:11;5.88;;;2.83;;
32445;SDS011;18899;50.748;7.102;2023-01-24T04:40:37;5.80;;;3.15;;
32445;SDS011;18899;50.748;7.102;2023-01-24T04:43:03;5.68;;;3.30;;
32445;SDS011;18899;50.748;7.102;2023-01-24T04:45:28;6.47;;;3.47;;
32445;SDS011;18899;50.748;7.102;2023-01-24T04:47:54;6.22;;;3.45;;
32445;SDS011;18899;50.748;7.102;2023-01-24T04:50:20;7.35;;;3.42;;
32445;SDS011;18899;50.748;7.102;2023-01-24T04:52:45;6.50;;;3.83;;
32445;SDS011;18899;50.748;7.102;2023-01-24T04:55:11;7.28;;;4.00;;
32445;SDS011;18899;50.748;7.102;2023-01-24T04:57:36;7.03;;;4.07;;
32445;SDS011;18899;50.748;7.102;2023-01-24T05:00:02;8.15;;;4.00;;
32445;SDS011;18899;50.748;7.102;2023-01-24T05:02:29;7.07;;;3.83;;
32445;SDS011;18899;50.748;7.102;2023-01-24T05:04:54;6.97;;;4.03;;
32445;SDS011;18899;50.748;7.102;2023-01-24T05:07:20;6.68;;;4.07;;
32445;SDS011;18899;50.748;7.102;2023-01-24T05:09:45;7.72;;;4.32;;
32445;SDS011;18899;50.748;7.102;2023-01-24T05:12:11;8.77;;;4.72;;
32445;SDS011;18899;50.748;7.102;2023-01-24T05:14:36;8.38;;;4.95;;
32445;SDS011;18899;50.748;7.102;2023-01-24T05:17:02;7.45;;;3.78;;
32445;SDS011;18899;50.748;7.102;2023-01-24T05:19:28;6.30;;;3.55;;
32445;SDS011;18899;50.748;7.102;2023-01-24T05:21:53;5.18;;;3.45;;
32445;SDS011;18899;50.748;7.102;2023-01-24T05:24:19;6.65;;;3.65;;
32445;SDS011;18899;50.748;7.102;2023-01-24T05:26:44;7.13;;;3.88;;
32445;SDS011;18899;50.748;7.102;2023-01-24T05:29:10;5.53;;;3.63;;
32445;SDS011;18899;50.748;7.102;2023-01-24T05:31:35;9.45;;;3.75;;
32445;SDS011;18899;50.748;7.102;2023-01-24T05:34:01;6.20;;;3.72;;
32445;SDS011;18899;50.748;7.102;2023-01-24T05:36:27;5.97;;;3.30;;
32445;SDS011;18899;50.748;7.102;2023-01-24T05:38:53;6.78;;;3.80;;
32445;SDS011;18899;50.748;7.102;2023-01-24T05:41:19;8.05;;;4.32;;
32445;SDS011;18899;50.748;7.102;2023-01-24T05:43:45;6.65;;;3.83;;
32445;SDS011;18899;50.748;7.102;2023-01-24T05:46:12;8.15;;;4.05;;
32445;SDS011;18899;50.748;7.102;2023-01-24T05:48:48;8.68;;;4.55;;
32445;SDS011;18899;50.748;7.102;2023-01-24T05:51:15;8.48;;;4.38;;
32445;SDS011;18899;50.748;7.102;2023-01-24T05:53:43;6.43;;;3.88;;
32445;SDS011;18899;50.748;7.102;2023-01-24T05:56:10;7.18;;;4.15;;
32445;SDS011;18899;50.748;7.102;2023-01-24T05:58:38;7.22;;;4.28;;
32445;SDS011;18899;50.748;7.102;2023-01-24T06:01:06;11.40;;;4.75;;
32445;SDS011;18899;50.748;7.102;2023-01-24T06:03:37;9.05;;;3.80;;
32445;SDS011;18899;50.748;7.102;2023-01-24T06:06:03;8.65;;;4.32;;
32445;SDS011;18899;50.748;7.102;2023-01-24T06:08:30;6.78;;;4.25;;
32445;SDS011;18899;50.748;7.102;2023-01-24T06:11:00;6.28;;;4.15;;
32445;SDS011;18899;50.748;7.102;2023-01-24T06:13:30;6.70;;;4.32;;
32445;SDS011;18899;50.748;7.102;2023-01-24T06:16:02;5.95;;;3.88;;
32445;SDS011;18899;50.748;7.102;2023-01-24T06:18:30;6.93;;;4.15;;
32445;SDS011;18899;50.748;7.102;2023-01-24T06:20:56;7.25;;;4.40;;
32445;SDS011;18899;50.748;7.102;2023-01-24T06:23:25;7.25;;;3.67;;
32445;SDS011;18899;50.748;7.102;2023-01-24T06:25:52;5.57;;;3.55;;
32445;SDS011;18899;50.748;7.102;2023-01-24T06:28:18;5.40;;;3.72;;
32445;SDS011;18899;50.748;7.102;2023-01-24T06:30:46;7.05;;;4.07;;
32445;SDS011;18899;50.748;7.102;2023-01-24T06:33:30;8.13;;;4.07;;
32445;SDS011;18899;50.748;7.102;2023-01-24T06:36:38;7.30;;;3.90;;
32445;SDS011;18899;50.748;7.102;2023-01-24T06:38:57;8.80;;;4.53;;
32445;SDS011;18899;50.748;7.102;2023-01-24T06:41:23;7.13;;;4.13;;
32445;SDS011;18899;50.748;7.102;2023-01-24T06:43:49;6.63;;;3.90;;
32445;SDS011;18899;50.748;7.102;2023-01-24T06:46:14;6.68;;;4.15;;
32445;SDS011;18899;50.748;7.102;2023-01-24T06:48:46;6.57;;;4.05;;
32445;SDS011;18899;50.748;7.102;2023-01-24T06:51:12;8.25;;;4.20;;
32445;SDS011;18899;50.748;7.102;2023-01-24T06:53:39;5.72;;;3.88;;
32445;SDS011;18899;50.748;7.102;2023-01-24T06:56:05;6.60;;;3.65;;
32445;SDS011;18899;50.748;7.102;2023-01-24T06:58:32;8.15;;;3.88;;
32445;SDS011;18899;50.748;7.102;2023-01-24T07:00:57;6.72;;;4.03;;
32445;SDS011;18899;50.748;7.102;2023-01-24T07:03:23;6.22;;;4.03;;
32445;SDS011;18899;50.748;7.102;2023-01-24T07:05:48;5.65;;;3.60;;
32445;SDS011;18899;50.748;7.102;2023-01-24T07:08:14;7.72;;;4.32;;
32445;SDS011;18899;50.748;7.102;2023-01-24T07:10:39;7.85;;;4.03;;
32445;SDS011;18899;50.748;7.102;2023-01-24T07:13:05;6.53;;;3.60;;
32445;SDS011;18899;50.748;7.102;2023-01-24T07:15:31;7.38;;;4.18;;
32445;SDS011;18899;50.748;7.102;2023-01-24T07:18:04;6.85;;;4.30;;
32445;SDS011;18899;50.748;7.102;2023-01-24T07:20:30;8.38;;;4.40;;
32445;SDS011;18899;50.748;7.102;2023-01-24T07:22:56;6.93;;;3.90;;
32445;SDS011;18899;50.748;7.102;2023-01-24T07:25:22;6.97;;;4.30;;
32445;SDS011;18899;50.748;7.102;2023-01-24T07:27:48;8.18;;;4.22;;
32445;SDS011;18899;50.748;7.102;2023-01-24T07:30:14;6.50;;;4.25;;
32445;SDS011;18899;50.748;7.102;2023-01-24T07:32:39;9.15;;;4.93;;
32445;SDS011;18899;50.748;7.102;2023-01-24T07:35:05;8.43;;;4.72;;
32445;SDS011;18899;50.748;7.102;2023-01-24T07:37:32;8.75;;;4.60;;
32445;SDS011;18899;50.748;7.102;2023-01-24T07:39:57;7.47;;;4.25;;
32445;SDS011;18899;50.748;7.102;2023-01-24T07:42:23;7.32;;;4.32;;
32445;SDS011;18899;50.748;7.102;2023-01-24T07:44:48;8.23;;;4.53;;
32445;SDS011;18899;50.748;7.102;2023-01-24T07:47:16;7.97;;;4.80;;
32445;SDS011;18899;50.748;7.102;2023-01-24T07:49:42;8.45;;;5.07;;
32445;SDS011;18899;50.748;7.102;2023-01-24T07:52:07;7.85;;;4.53;;
32445;SDS011;18899;50.748;7.102;2023-01-24T07:54:33;6.72;;;3.78;;
32445;SDS011;18899;50.748;7.102;2023-01-24T07:56:59;7.00;;;3.67;;
32445;SDS011;18899;50.748;7.102;2023-01-24T07:59:24;7.57;;;4.40;;
32445;SDS011;18899;50.748;7.102;2023-01-24T08:01:50;7.15;;;4.20;;
32445;SDS011;18899;50.748;7.102;2023-01-24T08:04:15;6.30;;;3.90;;
32445;SDS011;18899;50.748;7.102;2023-01-24T08:06:41;7.53;;;4.18;;
32445;SDS011;18899;50.748;7.102;2023-01-24T08:09:26;7.10;;;3.47;;
32445;SDS011;18899;50.748;7.102;2023-01-24T08:11:52;8.80;;;4.28;;
32445;SDS011;18899;50.748;7.102;2023-01-24T08:14:17;6.47;;;3.60;;
32445;SDS011;18899;50.748;7.102;2023-01-24T08:16:43;6.43;;;3.95;;
32445;SDS011;18899;50.748;7.102;2023-01-24T08:19:08;6.07;;;4.07;;
32445;SDS011;18899;50.748;7.102;2023-01-24T08:21:34;6.15;;;3.78;;
32445;SDS011;18899;50.748;7.102;2023-01-24T08:23:59;7.18;;;3.50;;
32445;SDS011;18899;50.748;7.102;2023-01-24T08:26:25;7.30;;;4.07;;
32445;SDS011;18899;50.748;7.102;2023-01-24T08:28:50;7.85;;;4.43;;
32445;SDS011;18899;50.748;7.102;2023-01-24T08:31:16;6.35;;;3.70;;
32445;SDS011;18899;50.748;7.102;2023-01-24T08:33:41;7.32;;;4.55;;
32445;SDS011;18899;50.748;7.102;2023-01-24T08:36:07;9.80;;;3.72;;
32445;SDS011;18899;50.748;7.102;2023-01-24T08:38:33;7.20;;;4.10;;
32445;SDS011;18899;50.748;7.102;2023-01-24T08:41:01;8.00;;;4.65;;
32445;SDS011;18899;50.748;7.102;2023-01-24T08:43:27;8.30;;;4.40;;
32445;SDS011;18899;50.748;7.102;2023-01-24T08:45:53;6.35;;;4.00;;
32445;SDS011;18899;50.748;7.102;2023-01-24T08:48:20;7.70;;;4.07;;
32445;SDS011;18899;50.748;7.102;2023-01-24T08:50:46;5.35;;;3.60;;
32445;SDS011;18899;50.748;7.102;2023-01-24T08:53:11;6.35;;;3.53;;
32445;SDS011;18899;50.748;7.102;2023-01-24T08:55:37;5.72;;;3.47;;
32445;SDS011;18899;50.748;7.102;2023-01-24T08:58:03;7.70;;;4.18;;
32445;SDS011;18899;50.748;7.102;2023-01-24T09:00:29;7.72;;;3.92;;
32445;SDS011;18899;50.748;7.102;2023-01-24T09:02:55;7.20;;;4.13;;
32445;SDS011;18899;50.748;7.102;2023-01-24T09:05:25;6.57;;;3.78;;
32445;SDS011;18899;50.748;7.102;2023-01-24T09:07:51;6.25;;;3.90;;
32445;SDS011;18899;50.748;7.102;2023-01-24T09:10:17;7.78;;;4.00;;
32445;SDS011;18899;50.748;7.102;2023-01-24T09:12:42;7.30;;;3.80;;
32445;SDS011;18899;50.748;7.102;2023-01-24T09:15:08;8.10;;;4.65;;
32445;SDS011;18899;50.748;7.102;2023-01-24T09:17:34;7.75;;;3.88;;
32445;SDS011;18899;50.748;7.102;2023-01-24T09:19:59;8.73;;;3.90;;
32445;SDS011;18899;50.748;7.102;2023-01-24T09:22:26;7.30;;;3.92;;
32445;SDS011;18899;50.748;7.102;2023-01-24T09:24:51;6.38;;;3.90;;
32445;SDS011;18899;50.748;7.102;2023-01-24T09:27:17;5.28;;;3.83;;
32445;SDS011;18899;50.748;7.102;2023-01-24T09:29:42;7.13;;;4.10;;
32445;SDS011;18899;50.748;7.102;2023-01-24T09:32:08;4.80;;;3.55;;
32445;SDS011;18899;50.748;7.102;2023-01-24T09:34:34;5.30;;;3.40;;
32445;SDS011;18899;50.748;7.102;2023-01-24T09:36:59;7.75;;;4.03;;
32445;SDS011;18899;50.748;7.102;2023-01-24T09:39:25;7.63;;;4.00;;
32445;SDS011;18899;50.748;7.102;2023-01-24T09:41:57;8.68;;;4.50;;
32445;SDS011;18899;50.748;7.102;2023-01-24T09:44:46;6.57;;;3.95;;
32445;SDS011;18899;50.748;7.102;2023-01-24T09:50:10;6.63;;;3.47;;
32445;SDS011;18899;50.748;7.102;2023-01-24T09:52:45;7.03;;;4.00;;
32445;SDS011;18899;50.748;7.102;2023-01-24T09:55:18;8.88;;;4.13;;
32445;SDS011;18899;50.748;7.102;2023-01-24T09:58:06;6.07;;;3.65;;
32445;SDS011;18899;50.748;7.102;2023-01-24T10:00:53;6.82;;;4.28;;
32445;SDS011;18899;50.748;7.102;2023-01-24T10:03:20;7.82;;;4.05;;
32445;SDS011;18899;50.748;7.102;2023-01-24T10:05:48;7.78;;;4.00;;
32445;SDS011;18899;50.748;7.102;2023-01-24T10:19:42;5.88;;;3.92;;
32445;SDS011;18899;50.748;7.102;2023-01-24T10:22:40;6.93;;;3.92;;
32445;SDS011;18899;50.748;7.102;2023-01-24T10:25:32;6.13;;;4.15;;
32445;SDS011;18899;50.748;7.102;2023-01-24T10:31:07;7.78;;;4.15;;
32445;SDS011;18899;50.748;7.102;2023-01-24T10:33:41;7.97;;;4.50;;
32445;SDS011;18899;50.748;7.102;2023-01-24T10:36:18;8.07;;;4.18;;
32445;SDS011;18899;50.748;7.102;2023-01-24T10:38:51;8.13;;;4.43;;
32445;SDS011;18899;50.748;7.102;2023-01-24T10:43:52;8.40;;;4.78;;
32445;SDS011;18899;50.748;7.102;2023-01-24T10:46:34;6.70;;;4.20;;
32445;SDS011;18899;50.748;7.102;2023-01-24T10:49:23;10.15;;;5.05;;
32445;SDS011;18899;50.748;7.102;2023-01-24T10:54:44;7.80;;;4.47;;
32445;SDS011;18899;50.748;7.102;2023-01-24T11:02:56;7.75;;;4.55;;
32445;SDS011;18899;50.748;7.102;2023-01-24T11:05:24;8.13;;;5.03;;
32445;SDS011;18899;50.748;7.102;2023-01-24T11:07:52;7.80;;;4.30;;
32445;SDS011;18899;50.748;7.102;2023-01-24T11:10:24;8.43;;;4.60;;
32445;SDS011;18899;50.748;7.102;2023-01-24T11:15:32;6.22;;;4.07;;
32445;SDS011;18899;50.748;7.102;2023-01-24T11:17:59;6.18;;;4.13;;
32445;SDS011;18899;50.748;7.102;2023-01-24T11:20:33;9.75;;;4.65;;
32445;SDS011;18899;50.748;7.102;2023-01-24T11:23:04;6.72;;;4.15;;
32445;SDS011;18899;50.748;7.102;2023-01-24T11:25:36;7.28;;;4.30;;
32445;SDS011;18899;50.748;7.102;2023-01-24T11:28:29;8.00;;;4.72;;
32445;SDS011;18899;50.748;7.102;2023-01-24T11:31:00;8.07;;;5.07;;
32445;SDS011;18899;50.748;7.102;2023-01-24T11:36:31;8.80;;;4.78;;
32445;SDS011;18899;50.748;7.102;2023-01-24T11:39:07;7.53;;;4.47;;
32445;SDS011;18899;50.748;7.102;2023-01-24T11:41:44;9.07;;;4.15;;
32445;SDS011;18899;50.748;7.102;2023-01-24T11:44:24;8.85;;;4.60;;
32445;SDS011;18899;50.748;7.102;2023-01-24T11:58:03;7.43;;;4.65;;
32445;SDS011;18899;50.748;7.102;2023-01-24T12:00:59;7.53;;;4.78;;
32445;SDS011;18899;50.748;7.102;2023-01-24T12:03:37;6.03;;;4.07;;
32445;SDS011;18899;50.748;7.102;2023-01-24T12:20:26;8.57;;;5.57;;
32445;SDS011;18899;50.748;7.102;2023-01-24T12:31:47;8.50;;;4.47;;
32445;SDS011;18899;50.748;7.102;2023-01-24T12:40:18;9.25;;;5.07;;
32445;SDS011;18899;50.748;7.102;2023-01-24T12:48:10;7.53;;;5.13;;
32445;SDS011;18899;50.748;7.102;2023-01-24T12:56:37;9.20;;;5.25;;
32445;SDS011;18899;50.748;7.102;2023-01-24T12:59:22;8.63;;;4.97;;
32445;SDS011;18899;50.748;7.102;2023-01-24T13:10:17;8.45;;;5.25;;
32445;SDS011;18899;50.748;7.102;2023-01-24T13:12:50;9.20;;;5.78;;
32445;SDS011;18899;50.748;7.102;2023-01-24T13:15:18;8.93;;;4.97;;
32445;SDS011;18899;50.748;7.102;2023-01-24T13:28:17;8.57;;;4.75;;
32445;SDS011;18899;50.748;7.102;2023-01-24T13:33:50;10.07;;;5.18;;
32445;SDS011;18899;50.748;7.102;2023-01-24T13:36:21;7.88;;;4.95;;
32445;SDS011;18899;50.748;7.102;2023-01-24T13:38:50;10.00;;;5.50;;
32445;SDS011;18899;50.748;7.102;2023-01-24T13:41:38;9.90;;;5.00;;
32445;SDS011;18899;50.748;7.102;2023-01-24T13:49:16;8.45;;;5.22;;
32445;SDS011;18899;50.748;7.102;2023-01-24T13:51:42;10.30;;;4.90;;
32445;SDS011;18899;50.748;7.102;2023-01-24T13:59:28;10.52;;;5.88;;
32445;SDS011;18899;50.748;7.102;2023-01-24T14:01:54;8.85;;;5.53;;
32445;SDS011;18899;50.748;7.102;2023-01-24T14:04:33;10.00;;;5.15;;
32445;SDS011;18899;50.748;7.102;2023-01-24T14:07:16;8.73;;;5.60;;
32445;SDS011;18899;50.748;7.102;2023-01-24T14:09:43;9.48;;;5.38;;
32445;SDS011;18899;50.748;7.102;2023-01-24T14:12:14;9.60;;;5.00;;
32445;SDS011;18899;50.748;7.102;2023-01-24T14:20:04;8.98;;;5.20;;
32445;SDS011;18899;50.748;7.102;2023-01-24T14:22:33;7.40;;;4.63;;
32445;SDS011;18899;50.748;7.102;2023-01-24T14:25:12;9.45;;;5.28;;
32445;SDS011;18899;50.748;7.102;2023-01-24T14:28:02;8.35;;;5.03;;
32445;SDS011;18899;50.748;7.102;2023-01-24T14:30:55;11.45;;;5.50;;
32445;SDS011;18899;50.748;7.102;2023-01-24T14:33:26;9.32;;;5.60;;
32445;SDS011;18899;50.748;7.102;2023-01-24T14:36:00;9.80;;;5.75;;
32445;SDS011;18899;50.748;7.102;2023-01-24T14:38:45;10.10;;;5.95;;
32445;SDS011;18899;50.748;7.102;2023-01-24T14:41:17;9.88;;;6.00;;
32445;SDS011;18899;50.748;7.102;2023-01-24T14:43:46;12.55;;;6.88;;
32445;SDS011;18899;50.748;7.102;2023-01-24T14:46:16;12.15;;;5.85;;
32445;SDS011;18899;50.748;7.102;2023-01-24T14:48:48;11.23;;;6.18;;
32445;SDS011;18899;50.748;7.102;2023-01-24T14:51:16;12.32;;;5.97;;
32445;SDS011;18899;50.748;7.102;2023-01-24T14:53:50;10.23;;;5.97;;
32445;SDS011;18899;50.748;7.102;2023-01-24T14:56:18;9.93;;;5.60;;
32445;SDS011;18899;50.748;7.102;2023-01-24T14:58:44;9.50;;;5.57;;
32445;SDS011;18899;50.748;7.102;2023-01-24T15:03:48;9.82;;;5.78;;
32445;SDS011;18899;50.748;7.102;2023-01-24T15:06:17;10.65;;;5.80;;
32445;SDS011;18899;50.748;7.102;2023-01-24T15:08:43;9.45;;;5.70;;
32445;SDS011;18899;50.748;7.102;2023-01-24T15:11:17;8.63;;;5.57;;
32445;SDS011;18899;50.748;7.102;2023-01-24T15:13:48;8.50;;;5.63;;
32445;SDS011;18899;50.748;7.102;2023-01-24T15:16:17;11.60;;;5.38;;
32445;SDS011;18899;50.748;7.102;2023-01-24T15:18:45;10.55;;;5.90;;
32445;SDS011;18899;50.748;7.102;2023-01-24T15:21:16;9.55;;;5.32;;
32445;SDS011;18899;50.748;7.102;2023-01-24T15:23:55;13.55;;;6.00;;
32445;SDS011;18899;50.748;7.102;2023-01-24T15:28:53;9.98;;;5.85;;
32445;SDS011;18899;50.748;7.102;2023-01-24T15:31:23;9.50;;;5.70;;
32445;SDS011;18899;50.748;7.102;2023-01-24T15:33:53;8.65;;;5.55;;
32445;SDS011;18899;50.748;7.102;2023-01-24T15:36:30;9.75;;;5.53;;
32445;SDS011;18899;50.748;7.102;2023-01-24T15:38:57;10.02;;;5.65;;
32445;SDS011;18899;50.748;7.102;2023-01-24T15:41:30;9.70;;;6.20;;
32445;SDS011;18899;50.748;7.102;2023-01-24T15:44:19;9.45;;;5.82;;
32445;SDS011;18899;50.748;7.102;2023-01-24T15:46:52;9.32;;;6.03;;
32445;SDS011;18899;50.748;7.102;2023-01-24T15:49:57;11.40;;;5.55;;
32445;SDS011;18899;50.748;7.102;2023-01-24T15:52:23;11.07;;;6.07;;
32445;SDS011;18899;50.748;7.102;2023-01-24T15:54:52;11.07;;;5.38;;
32445;SDS011;18899;50.748;7.102;2023-01-24T15:57:40;10.98;;;6.13;;
32445;SDS011;18899;50.748;7.102;2023-01-24T16:02:35;8.70;;;5.00;;
32445;SDS011;18899;50.748;7.102;2023-01-24T16:05:01;9.38;;;6.03;;
32445;SDS011;18899;50.748;7.102;2023-01-24T16:07:37;9.38;;;5.10;;
32445;SDS011;18899;50.748;7.102;2023-01-24T16:10:02;9.50;;;5.63;;
32445;SDS011;18899;50.748;7.102;2023-01-24T16:12:28;11.43;;;5.45;;
32445;SDS011;18899;50.748;7.102;2023-01-24T16:14:57;10.50;;;6.07;;
32445;SDS011;18899;50.748;7.102;2023-01-24T16:17:23;10.65;;;6.43;;
32445;SDS011;18899;50.748;7.102;2023-01-24T16:19:50;13.07;;;6.43;;
32445;SDS011;18899;50.748;7.102;2023-01-24T16:22:15;11.55;;;6.93;;
32445;SDS011;18899;50.748;7.102;2023-01-24T16:24:41;13.85;;;6.53;;
32445;SDS011;18899;50.748;7.102;2023-01-24T16:27:12;12.02;;;6.35;;
32445;SDS011;18899;50.748;7.102;2023-01-24T16:29:38;8.82;;;5.65;;
32445;SDS011;18899;50.748;7.102;2023-01-24T16:32:20;12.27;;;6.10;;
32445;SDS011;18899;50.748;7.102;2023-01-24T16:34:48;14.48;;;6.85;;
32445;SDS011;18899;50.748;7.102;2023-01-24T16:37:14;10.90;;;6.80;;
32445;SDS011;18899;50.748;7.102;2023-01-24T16:39:39;13.32;;;7.03;;
32445;SDS011;18899;50.748;7.102;2023-01-24T16:42:07;13.35;;;7.30;;
32445;SDS011;18899;50.748;7.102;2023-01-24T16:44:39;14.18;;;6.75;;
32445;SDS011;18899;50.748;7.102;2023-01-24T16:47:05;11.13;;;6.82;;
32445;SDS011;18899;50.748;7.102;2023-01-24T16:49:30;11.93;;;6.60;;
32445;SDS011;18899;50.748;7.102;2023-01-24T16:51:56;10.35;;;6.30;;
32445;SDS011;18899;50.748;7.102;2023-01-24T16:54:21;11.10;;;6.10;;
32445;SDS011;18899;50.748;7.102;2023-01-24T16:56:48;10.60;;;6.53;;
32445;SDS011;18899;50.748;7.102;2023-01-24T16:59:14;12.60;;;7.20;;
32445;SDS011;18899;50.748;7.102;2023-01-24T17:01:39;13.73;;;7.15;;
32445;SDS011;18899;50.748;7.102;2023-01-24T17:04:05;13.95;;;7.40;;
32445;SDS011;18899;50.748;7.102;2023-01-24T17:06:31;12.60;;;6.65;;
32445;SDS011;18899;50.748;7.102;2023-01-24T17:08:56;14.60;;;7.20;;
32445;SDS011;18899;50.748;7.102;2023-01-24T17:11:22;13.55;;;7.90;;
32445;SDS011;18899;50.748;7.102;2023-01-24T17:13:48;11.52;;;7.03;;
32445;SDS011;18899;50.748;7.102;2023-01-24T17:16:14;16.83;;;7.38;;